sensor_id;sensor_type;location;lat;lon;timestamp;temperature;humidity
48994;DHT22;34804;49.214;12.276;2023-08-07T00:02:20;11.80;94.00
48994;DHT22;34804;49.214;12.276;2023-08-07T00:04:47;11.80;94.10
48994;DHT22;34804;49.214;12.276;2023-08-07T00:07:14;11.80;94.40
48994;DHT22;34804;49.214;12.276;2023-08-07T00:09:41;11.80;94.20
48994;DHT22;34804;49.214;12.276;2023-08-07T00:12:08;11.80;94.20
48994;DHT22;34804;49.214;12.276;2023-08-07T00:14:34;11.70;94.10
48994;DHT22;34804;49.214;12.276;2023-08-07T00:17:01;11.70;94.40
48994;DHT22;34804;49.214;12.276;2023-08-07T00:19:29;11.70;94.60
48994;DHT22;34804;49.214;12.276;2023-08-07T00:21:55;11.70;94.50
48994;DHT22;34804;49.214;12.276;2023-08-07T00:24:23;11.70;94.70
48994;DHT22;34804;49.214;12.276;2023-08-07T00:26:50;11.60;94.60
48994;DHT22;34804;49.214;12.276;2023-08-07T00:29:16;11.60;94.50
48994;DHT22;34804;49.214;12.276;2023-08-07T00:31:43;11.60;94.60
48994;DHT22;34804;49.214;12.276;2023-08-07T00:34:10;11.60;94.80
48994;DHT22;34804;49.214;12.276;2023-08-07T00:36:37;11.60;94.90
48994;DHT22;34804;49.214;12.276;2023-08-07T00:39:04;11.60;95.00
48994;DHT22;34804;49.214;12.276;2023-08-07T00:41:31;11.60;95.00
48994;DHT22;34804;49.214;12.276;2023-08-07T00:43:58;11.50;95.00
48994;DHT22;34804;49.214;12.276;2023-08-07T00:46:24;11.50;95.10
48994;DHT22;34804;49.214;12.276;2023-08-07T00:48:52;11.50;95.20
48994;DHT22;34804;49.214;12.276;2023-08-07T00:51:20;11.50;95.20
48994;DHT22;34804;49.214;12.276;2023-08-07T00:53:48;11.50;95.00
48994;DHT22;34804;49.214;12.276;2023-08-07T00:56:15;11.50;95.20
48994;DHT22;34804;49.214;12.276;2023-08-07T00:58:43;11.50;95.20
48994;DHT22;34804;49.214;12.276;2023-08-07T01:01:10;11.50;95.40
48994;DHT22;34804;49.214;12.276;2023-08-07T01:03:37;11.50;95.30
48994;DHT22;34804;49.214;12.276;2023-08-07T01:06:04;11.50;95.30
48994;DHT22;34804;49.214;12.276;2023-08-07T01:08:31;11.50;95.20
48994;DHT22;34804;49.214;12.276;2023-08-07T01:13:40;11.40;95.20
48994;DHT22;34804;49.214;12.276;2023-08-07T01:16:14;11.40;95.30
48994;DHT22;34804;49.214;12.276;2023-08-07T01:18:45;11.40;95.30
48994;DHT22;34804;49.214;12.276;2023-08-07T01:21:19;11.40;95.20
48994;DHT22;34804;49.214;12.276;2023-08-07T01:23:47;11.40;95.20
48994;DHT22;34804;49.214;12.276;2023-08-07T01:26:15;11.40;94.90
48994;DHT22;34804;49.214;12.276;2023-08-07T01:29:05;11.40;95.00
48994;DHT22;34804;49.214;12.276;2023-08-07T01:31:33;11.40;95.00
48994;DHT22;34804;49.214;12.276;2023-08-07T01:34:05;11.40;95.20
48994;DHT22;34804;49.214;12.276;2023-08-07T01:36:35;11.40;95.10
48994;DHT22;34804;49.214;12.276;2023-08-07T01:39:02;11.40;94.90
48994;DHT22;34804;49.214;12.276;2023-08-07T01:41:30;11.40;95.00
48994;DHT22;34804;49.214;12.276;2023-08-07T01:43:57;11.40;95.10
48994;DHT22;34804;49.214;12.276;2023-08-07T01:46:24;11.40;95.20
48994;DHT22;34804;49.214;12.276;2023-08-07T01:48:51;11.40;95.10
48994;DHT22;34804;49.214;12.276;2023-08-07T01:51:18;11.40;95.00
48994;DHT22;34804;49.214;12.276;2023-08-07T01:53:45;11.40;95.10
48994;DHT22;34804;49.214;12.276;2023-08-07T01:56:14;11.40;95.10
48994;DHT22;34804;49.214;12.276;2023-08-07T01:58:41;11.30;95.10
48994;DHT22;34804;49.214;12.276;2023-08-07T02:01:07;11.30;95.20
48994;DHT22;34804;49.214;12.276;2023-08-07T02:03:34;11.40;95.40
48994;DHT22;34804;49.214;12.276;2023-08-07T02:06:01;11.30;95.40
48994;DHT22;34804;49.214;12.276;2023-08-07T02:08:28;11.30;95.20
48994;DHT22;34804;49.214;12.276;2023-08-07T02:10:55;11.30;95.40
48994;DHT22;34804;49.214;12.276;2023-08-07T02:13:22;11.30;95.50
48994;DHT22;34804;49.214;12.276;2023-08-07T02:15:49;11.30;95.40
48994;DHT22;34804;49.214;12.276;2023-08-07T02:18:15;11.30;95.40
48994;DHT22;34804;49.214;12.276;2023-08-07T02:20:42;11.30;95.40
48994;DHT22;34804;49.214;12.276;2023-08-07T02:23:09;11.30;95.40
48994;DHT22;34804;49.214;12.276;2023-08-07T02:25:36;11.30;95.30
48994;DHT22;34804;49.214;12.276;2023-08-07T02:28:03;11.30;95.10
48994;DHT22;34804;49.214;12.276;2023-08-07T02:30:30;11.30;95.20
48994;DHT22;34804;49.214;12.276;2023-08-07T02:32:57;11.30;95.30
48994;DHT22;34804;49.214;12.276;2023-08-07T02:35:24;11.30;95.10
48994;DHT22;34804;49.214;12.276;2023-08-07T02:37:51;11.30;95.10
48994;DHT22;34804;49.214;12.276;2023-08-07T02:40:18;11.30;95.00
48994;DHT22;34804;49.214;12.276;2023-08-07T02:42:45;11.30;95.30
48994;DHT22;34804;49.214;12.276;2023-08-07T02:45:12;11.30;95.30
48994;DHT22;34804;49.214;12.276;2023-08-07T02:47:39;11.30;95.30
48994;DHT22;34804;49.214;12.276;2023-08-07T02:50:06;11.30;95.30
48994;DHT22;34804;49.214;12.276;2023-08-07T02:52:33;11.30;95.40
48994;DHT22;34804;49.214;12.276;2023-08-07T02:55:00;11.30;95.40
48994;DHT22;34804;49.214;12.276;2023-08-07T02:57:27;11.30;95.30
48994;DHT22;34804;49.214;12.276;2023-08-07T02:59:54;11.30;95.30
48994;DHT22;34804;49.214;12.276;2023-08-07T03:02:21;11.30;95.30
48994;DHT22;34804;49.214;12.276;2023-08-07T03:04:47;11.30;95.40
48994;DHT22;34804;49.214;12.276;2023-08-07T03:07:14;11.30;95.40
48994;DHT22;34804;49.214;12.276;2023-08-07T03:09:42;11.30;95.50
48994;DHT22;34804;49.214;12.276;2023-08-07T03:12:11;11.30;95.30
48994;DHT22;34804;49.214;12.276;2023-08-07T03:14:38;11.30;95.50
48994;DHT22;34804;49.214;12.276;2023-08-07T03:17:05;11.30;94.90
48994;DHT22;34804;49.214;12.276;2023-08-07T03:19:32;11.30;95.30
48994;DHT22;34804;49.214;12.276;2023-08-07T03:21:59;11.30;95.10
48994;DHT22;34804;49.214;12.276;2023-08-07T03:24:26;11.30;95.10
48994;DHT22;34804;49.214;12.276;2023-08-07T03:26:52;11.30;95.10
48994;DHT22;34804;49.214;12.276;2023-08-07T03:29:20;11.20;95.20
48994;DHT22;34804;49.214;12.276;2023-08-07T03:31:46;11.30;95.00
48994;DHT22;34804;49.214;12.276;2023-08-07T03:34:13;11.20;95.10
48994;DHT22;34804;49.214;12.276;2023-08-07T03:36:40;11.20;95.30
48994;DHT22;34804;49.214;12.276;2023-08-07T03:39:07;11.20;95.40
48994;DHT22;34804;49.214;12.276;2023-08-07T03:41:35;11.20;95.40
48994;DHT22;34804;49.214;12.276;2023-08-07T03:44:02;11.20;95.20
48994;DHT22;34804;49.214;12.276;2023-08-07T03:46:29;11.20;95.40
48994;DHT22;34804;49.214;12.276;2023-08-07T03:48:56;11.20;95.10
48994;DHT22;34804;49.214;12.276;2023-08-07T03:51:23;11.20;95.30
48994;DHT22;34804;49.214;12.276;2023-08-07T03:53:50;11.20;95.30
48994;DHT22;34804;49.214;12.276;2023-08-07T03:56:16;11.10;95.30
48994;DHT22;34804;49.214;12.276;2023-08-07T03:58:44;11.20;95.30
48994;DHT22;34804;49.214;12.276;2023-08-07T04:01:11;11.20;95.30
48994;DHT22;34804;49.214;12.276;2023-08-07T04:03:38;11.10;95.30
48994;DHT22;34804;49.214;12.276;2023-08-07T04:06:05;11.10;95.30
48994;DHT22;34804;49.214;12.276;2023-08-07T04:08:32;11.10;95.30
48994;DHT22;34804;49.214;12.276;2023-08-07T04:11:04;11.10;95.00
48994;DHT22;34804;49.214;12.276;2023-08-07T04:13:32;11.10;94.90
48994;DHT22;34804;49.214;12.276;2023-08-07T04:15:59;11.10;95.10
48994;DHT22;34804;49.214;12.276;2023-08-07T04:18:27;11.10;95.10
48994;DHT22;34804;49.214;12.276;2023-08-07T04:20:55;11.10;95.20
48994;DHT22;34804;49.214;12.276;2023-08-07T04:23:22;11.10;95.30
48994;DHT22;34804;49.214;12.276;2023-08-07T04:25:50;11.10;95.30
48994;DHT22;34804;49.214;12.276;2023-08-07T04:28:17;11.10;95.40
48994;DHT22;34804;49.214;12.276;2023-08-07T04:30:45;11.10;95.10
48994;DHT22;34804;49.214;12.276;2023-08-07T04:33:15;11.00;95.30
48994;DHT22;34804;49.214;12.276;2023-08-07T04:35:42;11.00;95.30
48994;DHT22;34804;49.214;12.276;2023-08-07T04:38:10;11.10;95.50
48994;DHT22;34804;49.214;12.276;2023-08-07T04:40:37;11.00;95.30
48994;DHT22;34804;49.214;12.276;2023-08-07T04:43:04;11.00;95.20
48994;DHT22;34804;49.214;12.276;2023-08-07T04:45:31;11.00;95.20
48994;DHT22;34804;49.214;12.276;2023-08-07T04:47:58;11.10;95.50
48994;DHT22;34804;49.214;12.276;2023-08-07T04:50:25;11.00;95.60
48994;DHT22;34804;49.214;12.276;2023-08-07T04:52:52;11.00;94.90
48994;DHT22;34804;49.214;12.276;2023-08-07T04:55:18;11.00;95.30
48994;DHT22;34804;49.214;12.276;2023-08-07T04:57:45;11.00;95.40
48994;DHT22;34804;49.214;12.276;2023-08-07T05:00:13;11.00;95.10
48994;DHT22;34804;49.214;12.276;2023-08-07T05:02:40;11.00;95.00
48994;DHT22;34804;49.214;12.276;2023-08-07T05:05:07;11.00;95.00
48994;DHT22;34804;49.214;12.276;2023-08-07T05:07:35;10.90;95.00
48994;DHT22;34804;49.214;12.276;2023-08-07T05:10:02;11.00;94.90
48994;DHT22;34804;49.214;12.276;2023-08-07T05:12:29;11.00;95.20
48994;DHT22;34804;49.214;12.276;2023-08-07T05:14:56;11.00;95.30
48994;DHT22;34804;49.214;12.276;2023-08-07T05:17:23;11.00;95.50
48994;DHT22;34804;49.214;12.276;2023-08-07T05:19:50;10.90;95.40
48994;DHT22;34804;49.214;12.276;2023-08-07T05:22:17;11.00;95.50
48994;DHT22;34804;49.214;12.276;2023-08-07T05:24:44;10.90;95.60
48994;DHT22;34804;49.214;12.276;2023-08-07T05:27:12;11.00;95.60
48994;DHT22;34804;49.214;12.276;2023-08-07T05:29:38;10.90;95.40
48994;DHT22;34804;49.214;12.276;2023-08-07T05:32:15;10.90;95.40
48994;DHT22;34804;49.214;12.276;2023-08-07T05:34:41;11.00;95.50
48994;DHT22;34804;49.214;12.276;2023-08-07T05:37:08;11.00;95.50
48994;DHT22;34804;49.214;12.276;2023-08-07T05:39:35;11.00;95.50
48994;DHT22;34804;49.214;12.276;2023-08-07T05:42:02;11.00;95.40
48994;DHT22;34804;49.214;12.276;2023-08-07T05:44:30;11.00;95.50
48994;DHT22;34804;49.214;12.276;2023-08-07T05:46:56;11.00;95.50
48994;DHT22;34804;49.214;12.276;2023-08-07T05:49:23;10.90;95.10
48994;DHT22;34804;49.214;12.276;2023-08-07T05:51:52;11.00;95.30
48994;DHT22;34804;49.214;12.276;2023-08-07T05:54:20;11.00;95.50
48994;DHT22;34804;49.214;12.276;2023-08-07T05:56:47;11.00;95.60
48994;DHT22;34804;49.214;12.276;2023-08-07T05:59:14;10.90;95.60
48994;DHT22;34804;49.214;12.276;2023-08-07T06:01:42;11.00;95.50
48994;DHT22;34804;49.214;12.276;2023-08-07T06:04:09;11.00;95.50
48994;DHT22;34804;49.214;12.276;2023-08-07T06:06:36;11.00;95.60
48994;DHT22;34804;49.214;12.276;2023-08-07T06:09:03;11.00;95.50
48994;DHT22;34804;49.214;12.276;2023-08-07T06:11:33;11.00;95.30
48994;DHT22;34804;49.214;12.276;2023-08-07T06:14:00;11.00;95.40
48994;DHT22;34804;49.214;12.276;2023-08-07T06:16:27;11.10;95.70
48994;DHT22;34804;49.214;12.276;2023-08-07T06:18:55;11.10;95.80
48994;DHT22;34804;49.214;12.276;2023-08-07T06:21:21;11.10;95.40
48994;DHT22;34804;49.214;12.276;2023-08-07T06:23:48;11.10;95.70
48994;DHT22;34804;49.214;12.276;2023-08-07T06:26:15;11.20;95.70
48994;DHT22;34804;49.214;12.276;2023-08-07T06:28:42;11.20;95.10
48994;DHT22;34804;49.214;12.276;2023-08-07T06:31:11;11.20;95.20
48994;DHT22;34804;49.214;12.276;2023-08-07T06:33:38;11.20;95.00
48994;DHT22;34804;49.214;12.276;2023-08-07T06:36:06;11.20;95.00
48994;DHT22;34804;49.214;12.276;2023-08-07T06:38:33;11.30;95.20
48994;DHT22;34804;49.214;12.276;2023-08-07T06:41:00;11.30;95.10
48994;DHT22;34804;49.214;12.276;2023-08-07T06:43:27;11.20;94.70
48994;DHT22;34804;49.214;12.276;2023-08-07T06:45:55;11.30;95.20
48994;DHT22;34804;49.214;12.276;2023-08-07T06:48:23;11.30;95.00
48994;DHT22;34804;49.214;12.276;2023-08-07T06:50:50;11.30;94.90
48994;DHT22;34804;49.214;12.276;2023-08-07T06:53:18;11.30;95.10
48994;DHT22;34804;49.214;12.276;2023-08-07T06:55:45;11.30;95.00
48994;DHT22;34804;49.214;12.276;2023-08-07T06:58:12;11.30;94.70
48994;DHT22;34804;49.214;12.276;2023-08-07T07:00:39;11.30;94.90
48994;DHT22;34804;49.214;12.276;2023-08-07T07:03:06;11.30;95.00
48994;DHT22;34804;49.214;12.276;2023-08-07T07:05:34;11.30;94.70
48994;DHT22;34804;49.214;12.276;2023-08-07T07:08:01;11.30;94.60
48994;DHT22;34804;49.214;12.276;2023-08-07T07:10:28;11.30;94.80
48994;DHT22;34804;49.214;12.276;2023-08-07T07:12:55;11.30;94.70
48994;DHT22;34804;49.214;12.276;2023-08-07T07:15:22;11.40;94.70
48994;DHT22;34804;49.214;12.276;2023-08-07T07:17:48;11.30;94.40
48994;DHT22;34804;49.214;12.276;2023-08-07T07:20:15;11.30;94.50
48994;DHT22;34804;49.214;12.276;2023-08-07T07:22:42;11.30;94.20
48994;DHT22;34804;49.214;12.276;2023-08-07T07:25:09;11.30;94.30
48994;DHT22;34804;49.214;12.276;2023-08-07T07:27:36;11.30;94.80
48994;DHT22;34804;49.214;12.276;2023-08-07T07:30:04;11.40;94.70
48994;DHT22;34804;49.214;12.276;2023-08-07T07:32:31;11.40;94.40
48994;DHT22;34804;49.214;12.276;2023-08-07T07:34:58;11.40;94.10
48994;DHT22;34804;49.214;12.276;2023-08-07T07:37:25;11.60;94.40
48994;DHT22;34804;49.214;12.276;2023-08-07T07:39:51;11.60;94.30
48994;DHT22;34804;49.214;12.276;2023-08-07T07:42:19;11.60;94.30
48994;DHT22;34804;49.214;12.276;2023-08-07T07:44:45;11.60;93.60
48994;DHT22;34804;49.214;12.276;2023-08-07T07:47:13;11.70;93.30
48994;DHT22;34804;49.214;12.276;2023-08-07T07:49:47;11.80;93.90
48994;DHT22;34804;49.214;12.276;2023-08-07T07:52:14;11.80;93.20
48994;DHT22;34804;49.214;12.276;2023-08-07T07:54:41;11.80;92.90
48994;DHT22;34804;49.214;12.276;2023-08-07T07:57:08;11.90;93.40
48994;DHT22;34804;49.214;12.276;2023-08-07T07:59:35;11.90;93.10
48994;DHT22;34804;49.214;12.276;2023-08-07T08:02:02;11.90;93.10
48994;DHT22;34804;49.214;12.276;2023-08-07T08:04:29;11.90;93.80
48994;DHT22;34804;49.214;12.276;2023-08-07T08:06:56;11.90;92.50
48994;DHT22;34804;49.214;12.276;2023-08-07T08:09:23;11.80;92.50
48994;DHT22;34804;49.214;12.276;2023-08-07T08:11:49;11.90;93.00
48994;DHT22;34804;49.214;12.276;2023-08-07T08:14:16;11.80;91.60
48994;DHT22;34804;49.214;12.276;2023-08-07T08:16:43;11.80;92.60
48994;DHT22;34804;49.214;12.276;2023-08-07T08:19:10;11.80;92.40
48994;DHT22;34804;49.214;12.276;2023-08-07T08:21:37;11.80;91.90
48994;DHT22;34804;49.214;12.276;2023-08-07T08:24:04;11.80;93.50
48994;DHT22;34804;49.214;12.276;2023-08-07T08:26:31;11.80;93.20
48994;DHT22;34804;49.214;12.276;2023-08-07T08:28:58;11.80;93.30
48994;DHT22;34804;49.214;12.276;2023-08-07T08:31:25;11.90;93.70
48994;DHT22;34804;49.214;12.276;2023-08-07T08:33:52;11.90;93.20
48994;DHT22;34804;49.214;12.276;2023-08-07T08:36:19;11.90;92.90
48994;DHT22;34804;49.214;12.276;2023-08-07T08:38:46;11.80;92.80
48994;DHT22;34804;49.214;12.276;2023-08-07T08:41:16;11.80;92.10
48994;DHT22;34804;49.214;12.276;2023-08-07T08:43:45;11.80;92.50
48994;DHT22;34804;49.214;12.276;2023-08-07T08:46:15;11.80;93.10
48994;DHT22;34804;49.214;12.276;2023-08-07T08:48:47;11.80;92.50
48994;DHT22;34804;49.214;12.276;2023-08-07T08:51:16;11.80;92.60
48994;DHT22;34804;49.214;12.276;2023-08-07T08:53:48;11.80;91.90
48994;DHT22;34804;49.214;12.276;2023-08-07T08:56:16;11.80;92.30
48994;DHT22;34804;49.214;12.276;2023-08-07T08:58:43;11.80;92.30
48994;DHT22;34804;49.214;12.276;2023-08-07T09:01:11;11.80;92.50
48994;DHT22;34804;49.214;12.276;2023-08-07T09:03:42;11.80;92.00
48994;DHT22;34804;49.214;12.276;2023-08-07T09:06:09;11.80;93.00
48994;DHT22;34804;49.214;12.276;2023-08-07T09:08:38;11.90;93.20
48994;DHT22;34804;49.214;12.276;2023-08-07T09:11:07;11.90;92.60
48994;DHT22;34804;49.214;12.276;2023-08-07T09:13:36;12.00;92.40
48994;DHT22;34804;49.214;12.276;2023-08-07T09:16:06;12.10;92.60
48994;DHT22;34804;49.214;12.276;2023-08-07T09:18:35;12.20;92.60
48994;DHT22;34804;49.214;12.276;2023-08-07T09:21:02;12.20;92.50
48994;DHT22;34804;49.214;12.276;2023-08-07T09:23:29;12.20;92.40
48994;DHT22;34804;49.214;12.276;2023-08-07T09:26:04;12.20;92.30
48994;DHT22;34804;49.214;12.276;2023-08-07T09:28:32;12.20;92.90
48994;DHT22;34804;49.214;12.276;2023-08-07T09:30:59;12.20;93.20
48994;DHT22;34804;49.214;12.276;2023-08-07T09:33:29;12.10;92.60
48994;DHT22;34804;49.214;12.276;2023-08-07T09:36:01;12.00;93.00
48994;DHT22;34804;49.214;12.276;2023-08-07T09:38:28;12.10;93.90
48994;DHT22;34804;49.214;12.276;2023-08-07T09:41:03;12.00;93.40
48994;DHT22;34804;49.214;12.276;2023-08-07T09:43:36;12.10;93.90
48994;DHT22;34804;49.214;12.276;2023-08-07T09:46:05;12.20;94.30
48994;DHT22;34804;49.214;12.276;2023-08-07T09:48:41;12.20;93.30
48994;DHT22;34804;49.214;12.276;2023-08-07T09:51:09;12.30;94.10
48994;DHT22;34804;49.214;12.276;2023-08-07T09:53:36;12.40;94.10
48994;DHT22;34804;49.214;12.276;2023-08-07T09:56:03;12.40;93.40
48994;DHT22;34804;49.214;12.276;2023-08-07T09:58:30;12.30;92.80
48994;DHT22;34804;49.214;12.276;2023-08-07T10:01:04;12.30;93.10
48994;DHT22;34804;49.214;12.276;2023-08-07T10:03:31;12.30;93.60
48994;DHT22;34804;49.214;12.276;2023-08-07T10:05:59;12.40;93.60
48994;DHT22;34804;49.214;12.276;2023-08-07T10:08:26;12.30;93.10
48994;DHT22;34804;49.214;12.276;2023-08-07T10:10:54;12.30;93.50
48994;DHT22;34804;49.214;12.276;2023-08-07T10:13:22;12.30;93.30
48994;DHT22;34804;49.214;12.276;2023-08-07T10:16:04;12.30;93.90
48994;DHT22;34804;49.214;12.276;2023-08-07T10:18:31;12.30;93.30
48994;DHT22;34804;49.214;12.276;2023-08-07T10:21:01;12.40;93.90
48994;DHT22;34804;49.214;12.276;2023-08-07T10:23:32;12.60;94.10
48994;DHT22;34804;49.214;12.276;2023-08-07T10:26:00;12.40;92.70
48994;DHT22;34804;49.214;12.276;2023-08-07T10:28:29;12.50;93.70
48994;DHT22;34804;49.214;12.276;2023-08-07T10:31:00;12.60;93.20
48994;DHT22;34804;49.214;12.276;2023-08-07T10:33:27;12.50;91.90
48994;DHT22;34804;49.214;12.276;2023-08-07T10:35:54;12.50;92.60
48994;DHT22;34804;49.214;12.276;2023-08-07T10:38:23;12.80;94.10
48994;DHT22;34804;49.214;12.276;2023-08-07T10:41:07;12.80;92.80
48994;DHT22;34804;49.214;12.276;2023-08-07T10:43:42;12.90;93.30
48994;DHT22;34804;49.214;12.276;2023-08-07T10:46:19;12.90;91.60
48994;DHT22;34804;49.214;12.276;2023-08-07T10:48:54;13.20;93.70
48994;DHT22;34804;49.214;12.276;2023-08-07T10:51:29;13.10;92.00
48994;DHT22;34804;49.214;12.276;2023-08-07T10:53:59;13.20;92.80
48994;DHT22;34804;49.214;12.276;2023-08-07T10:56:32;13.10;92.80
48994;DHT22;34804;49.214;12.276;2023-08-07T10:59:11;13.10;92.00
48994;DHT22;34804;49.214;12.276;2023-08-07T11:04:10;13.00;92.50
48994;DHT22;34804;49.214;12.276;2023-08-07T11:06:38;12.90;91.70
48994;DHT22;34804;49.214;12.276;2023-08-07T11:09:09;12.90;92.20
48994;DHT22;34804;49.214;12.276;2023-08-07T11:11:45;12.90;91.20
48994;DHT22;34804;49.214;12.276;2023-08-07T11:14:14;13.00;91.80
48994;DHT22;34804;49.214;12.276;2023-08-07T11:16:42;13.10;91.40
48994;DHT22;34804;49.214;12.276;2023-08-07T11:19:11;13.10;91.70
48994;DHT22;34804;49.214;12.276;2023-08-07T11:21:38;12.90;90.50
48994;DHT22;34804;49.214;12.276;2023-08-07T11:24:05;12.80;90.00
48994;DHT22;34804;49.214;12.276;2023-08-07T11:26:31;12.90;90.90
48994;DHT22;34804;49.214;12.276;2023-08-07T11:28:58;13.00;91.60
48994;DHT22;34804;49.214;12.276;2023-08-07T11:31:26;13.00;91.10
48994;DHT22;34804;49.214;12.276;2023-08-07T11:33:55;13.00;91.50
48994;DHT22;34804;49.214;12.276;2023-08-07T11:36:25;13.10;91.80
48994;DHT22;34804;49.214;12.276;2023-08-07T11:38:52;12.90;91.70
48994;DHT22;34804;49.214;12.276;2023-08-07T11:41:19;13.00;91.70
48994;DHT22;34804;49.214;12.276;2023-08-07T11:43:46;12.90;89.90
48994;DHT22;34804;49.214;12.276;2023-08-07T11:46:14;12.90;90.70
48994;DHT22;34804;49.214;12.276;2023-08-07T11:48:43;12.90;91.00
48994;DHT22;34804;49.214;12.276;2023-08-07T11:51:12;12.80;90.50
48994;DHT22;34804;49.214;12.276;2023-08-07T11:53:41;12.80;90.80
48994;DHT22;34804;49.214;12.276;2023-08-07T11:56:09;12.80;90.50
48994;DHT22;34804;49.214;12.276;2023-08-07T11:58:41;12.70;90.50
48994;DHT22;34804;49.214;12.276;2023-08-07T12:01:11;12.60;90.80
48994;DHT22;34804;49.214;12.276;2023-08-07T12:03:42;12.60;91.90
48994;DHT22;34804;49.214;12.276;2023-08-07T12:06:10;12.60;91.00
48994;DHT22;34804;49.214;12.276;2023-08-07T12:08:39;12.70;91.40
48994;DHT22;34804;49.214;12.276;2023-08-07T12:11:11;12.80;90.80
48994;DHT22;34804;49.214;12.276;2023-08-07T12:13:45;12.70;90.00
48994;DHT22;34804;49.214;12.276;2023-08-07T12:16:15;12.70;91.00
48994;DHT22;34804;49.214;12.276;2023-08-07T12:18:44;12.60;89.30
48994;DHT22;34804;49.214;12.276;2023-08-07T12:21:18;12.60;88.80
48994;DHT22;34804;49.214;12.276;2023-08-07T12:23:55;12.70;90.00
48994;DHT22;34804;49.214;12.276;2023-08-07T12:26:23;12.70;89.40
48994;DHT22;34804;49.214;12.276;2023-08-07T12:28:50;12.70;89.40
48994;DHT22;34804;49.214;12.276;2023-08-07T12:31:18;12.80;89.70
48994;DHT22;34804;49.214;12.276;2023-08-07T12:33:45;12.80;90.30
48994;DHT22;34804;49.214;12.276;2023-08-07T12:36:12;12.80;89.10
48994;DHT22;34804;49.214;12.276;2023-08-07T12:38:44;12.70;89.00
48994;DHT22;34804;49.214;12.276;2023-08-07T12:41:12;12.80;89.40
48994;DHT22;34804;49.214;12.276;2023-08-07T12:43:44;12.70;88.90
48994;DHT22;34804;49.214;12.276;2023-08-07T12:46:11;12.70;89.60
48994;DHT22;34804;49.214;12.276;2023-08-07T12:48:41;12.60;88.80
48994;DHT22;34804;49.214;12.276;2023-08-07T12:51:09;12.60;89.20
48994;DHT22;34804;49.214;12.276;2023-08-07T12:53:36;12.60;88.70
48994;DHT22;34804;49.214;12.276;2023-08-07T12:56:03;12.60;89.60
48994;DHT22;34804;49.214;12.276;2023-08-07T12:58:32;12.60;89.40
48994;DHT22;34804;49.214;12.276;2023-08-07T13:01:01;12.60;89.50
48994;DHT22;34804;49.214;12.276;2023-08-07T13:03:28;12.60;90.00
48994;DHT22;34804;49.214;12.276;2023-08-07T13:05:56;12.60;88.90
48994;DHT22;34804;49.214;12.276;2023-08-07T13:08:23;12.70;89.50
48994;DHT22;34804;49.214;12.276;2023-08-07T13:10:50;12.70;89.20
48994;DHT22;34804;49.214;12.276;2023-08-07T13:13:17;12.70;89.10
48994;DHT22;34804;49.214;12.276;2023-08-07T13:15:44;12.70;89.10
48994;DHT22;34804;49.214;12.276;2023-08-07T13:18:11;12.70;88.80
48994;DHT22;34804;49.214;12.276;2023-08-07T13:20:41;12.80;88.60
48994;DHT22;34804;49.214;12.276;2023-08-07T13:23:08;12.80;88.00
48994;DHT22;34804;49.214;12.276;2023-08-07T13:25:35;13.00;88.60
48994;DHT22;34804;49.214;12.276;2023-08-07T13:28:03;13.30;88.80
48994;DHT22;34804;49.214;12.276;2023-08-07T13:30:33;13.40;88.60
48994;DHT22;34804;49.214;12.276;2023-08-07T13:33:03;13.40;86.50
48994;DHT22;34804;49.214;12.276;2023-08-07T13:35:31;13.40;87.10
48994;DHT22;34804;49.214;12.276;2023-08-07T13:38:00;13.40;86.30
48994;DHT22;34804;49.214;12.276;2023-08-07T13:40:27;13.30;86.80
48994;DHT22;34804;49.214;12.276;2023-08-07T13:42:55;13.30;86.40
48994;DHT22;34804;49.214;12.276;2023-08-07T13:45:21;13.30;87.50
48994;DHT22;34804;49.214;12.276;2023-08-07T13:47:49;13.30;86.70
48994;DHT22;34804;49.214;12.276;2023-08-07T13:50:16;13.40;86.60
48994;DHT22;34804;49.214;12.276;2023-08-07T13:52:43;13.40;86.60
48994;DHT22;34804;49.214;12.276;2023-08-07T13:55:10;13.40;87.00
48994;DHT22;34804;49.214;12.276;2023-08-07T13:57:37;13.30;86.40
48994;DHT22;34804;49.214;12.276;2023-08-07T14:00:04;13.30;87.30
48994;DHT22;34804;49.214;12.276;2023-08-07T14:02:32;13.30;86.80
48994;DHT22;34804;49.214;12.276;2023-08-07T14:05:01;13.20;86.10
48994;DHT22;34804;49.214;12.276;2023-08-07T14:07:29;13.20;87.30
48994;DHT22;34804;49.214;12.276;2023-08-07T14:09:56;13.30;87.40
48994;DHT22;34804;49.214;12.276;2023-08-07T14:12:23;13.50;87.80
48994;DHT22;34804;49.214;12.276;2023-08-07T14:14:50;13.60;85.30
48994;DHT22;34804;49.214;12.276;2023-08-07T14:17:17;13.60;86.70
48994;DHT22;34804;49.214;12.276;2023-08-07T14:19:44;13.50;86.20
48994;DHT22;34804;49.214;12.276;2023-08-07T14:22:12;13.50;86.90
48994;DHT22;34804;49.214;12.276;2023-08-07T14:24:39;13.40;86.50
48994;DHT22;34804;49.214;12.276;2023-08-07T14:27:07;13.50;87.40
48994;DHT22;34804;49.214;12.276;2023-08-07T14:29:33;13.70;87.60
48994;DHT22;34804;49.214;12.276;2023-08-07T14:32:01;13.70;86.60
48994;DHT22;34804;49.214;12.276;2023-08-07T14:34:29;13.80;87.20
48994;DHT22;34804;49.214;12.276;2023-08-07T14:36:55;13.90;85.50
48994;DHT22;34804;49.214;12.276;2023-08-07T14:39:23;13.80;85.30
48994;DHT22;34804;49.214;12.276;2023-08-07T14:41:50;13.70;84.90
48994;DHT22;34804;49.214;12.276;2023-08-07T14:44:18;13.60;85.00
48994;DHT22;34804;49.214;12.276;2023-08-07T14:46:45;13.50;86.00
48994;DHT22;34804;49.214;12.276;2023-08-07T14:49:12;13.40;86.30
48994;DHT22;34804;49.214;12.276;2023-08-07T14:51:39;13.40;86.40
48994;DHT22;34804;49.214;12.276;2023-08-07T14:54:10;13.40;86.40
48994;DHT22;34804;49.214;12.276;2023-08-07T14:56:38;13.30;86.80
48994;DHT22;34804;49.214;12.276;2023-08-07T14:59:05;13.20;87.00
48994;DHT22;34804;49.214;12.276;2023-08-07T15:01:32;13.20;87.30
48994;DHT22;34804;49.214;12.276;2023-08-07T15:03:59;13.20;86.90
48994;DHT22;34804;49.214;12.276;2023-08-07T15:06:26;13.30;86.80
48994;DHT22;34804;49.214;12.276;2023-08-07T15:08:53;13.30;86.70
48994;DHT22;34804;49.214;12.276;2023-08-07T15:11:20;13.30;86.70
48994;DHT22;34804;49.214;12.276;2023-08-07T15:13:47;13.30;87.70
48994;DHT22;34804;49.214;12.276;2023-08-07T15:16:15;13.30;88.10
48994;DHT22;34804;49.214;12.276;2023-08-07T15:18:42;13.20;87.70
48994;DHT22;34804;49.214;12.276;2023-08-07T15:21:08;13.10;88.10
48994;DHT22;34804;49.214;12.276;2023-08-07T15:23:37;13.10;88.50
48994;DHT22;34804;49.214;12.276;2023-08-07T15:26:04;13.00;89.30